sensor_id;sensor_type;location;lat;lon;timestamp;P1;durP1;ratioP1;P2;durP2;ratioP2
67363;SDS011;54250;45.572;38.086;2023-06-10T00:02:14;9.45;;;1.90;;
67363;SDS011;54250;45.572;38.086;2023-06-10T00:04:42;7.25;;;1.80;;
67363;SDS011;54250;45.572;38.086;2023-06-10T00:07:08;8.80;;;1.77;;
67363;SDS011;54250;45.572;38.086;2023-06-10T00:09:35;14.77;;;2.33;;
67363;SDS011;54250;45.572;38.086;2023-06-10T00:12:05;7.38;;;1.90;;
67363;SDS011;54250;45.572;38.086;2023-06-10T00:14:33;14.82;;;2.50;;
67363;SDS011;54250;45.572;38.086;2023-06-10T00:16:59;17.08;;;1.70;;
67363;SDS011;54250;45.572;38.086;2023-06-10T00:19:25;6.88;;;1.23;;
67363;SDS011;54250;45.572;38.086;2023-06-10T00:21:55;8.68;;;1.95;;
67363;SDS011;54250;45.572;38.086;2023-06-10T00:24:22;18.38;;;2.67;;
67363;SDS011;54250;45.572;38.086;2023-06-10T00:26:48;7.97;;;1.88;;
67363;SDS011;54250;45.572;38.086;2023-06-10T00:29:14;11.77;;;2.08;;
67363;SDS011;54250;45.572;38.086;2023-06-10T00:31:41;15.57;;;3.10;;
67363;SDS011;54250;45.572;38.086;2023-06-10T00:34:07;12.88;;;2.28;;
67363;SDS011;54250;45.572;38.086;2023-06-10T00:36:33;14.13;;;1.80;;
67363;SDS011;54250;45.572;38.086;2023-06-10T00:39:01;12.55;;;1.65;;
67363;SDS011;54250;45.572;38.086;2023-06-10T00:41:28;10.98;;;2.33;;
67363;SDS011;54250;45.572;38.086;2023-06-10T00:43:54;14.30;;;2.65;;
67363;SDS011;54250;45.572;38.086;2023-06-10T00:46:23;11.40;;;2.25;;
67363;SDS011;54250;45.572;38.086;2023-06-10T00:48:51;10.15;;;2.47;;
67363;SDS011;54250;45.572;38.086;2023-06-10T00:51:17;10.27;;;2.70;;
67363;SDS011;54250;45.572;38.086;2023-06-10T00:53:44;11.27;;;2.15;;
67363;SDS011;54250;45.572;38.086;2023-06-10T00:56:11;17.98;;;2.60;;
67363;SDS011;54250;45.572;38.086;2023-06-10T00:58:38;11.95;;;2.35;;
67363;SDS011;54250;45.572;38.086;2023-06-10T01:01:05;14.25;;;2.30;;
67363;SDS011;54250;45.572;38.086;2023-06-10T01:03:31;17.08;;;1.98;;
67363;SDS011;54250;45.572;38.086;2023-06-10T01:06:09;21.33;;;2.20;;
67363;SDS011;54250;45.572;38.086;2023-06-10T01:11:41;17.73;;;2.30;;
67363;SDS011;54250;45.572;38.086;2023-06-10T01:14:13;11.70;;;2.13;;
67363;SDS011;54250;45.572;38.086;2023-06-10T01:16:41;14.98;;;2.50;;
67363;SDS011;54250;45.572;38.086;2023-06-10T01:19:11;17.77;;;2.13;;
67363;SDS011;54250;45.572;38.086;2023-06-10T01:21:38;15.63;;;3.10;;
67363;SDS011;54250;45.572;38.086;2023-06-10T01:24:05;8.38;;;1.63;;
67363;SDS011;54250;45.572;38.086;2023-06-10T01:26:33;5.93;;;2.10;;
67363;SDS011;54250;45.572;38.086;2023-06-10T01:32:04;27.48;;;1.98;;
67363;SDS011;54250;45.572;38.086;2023-06-10T01:34:37;10.73;;;1.80;;
67363;SDS011;54250;45.572;38.086;2023-06-10T01:37:06;11.55;;;1.92;;
67363;SDS011;54250;45.572;38.086;2023-06-10T01:39:37;9.07;;;2.10;;
67363;SDS011;54250;45.572;38.086;2023-06-10T01:42:07;4.10;;;1.65;;
67363;SDS011;54250;45.572;38.086;2023-06-10T01:44:35;14.38;;;2.67;;
67363;SDS011;54250;45.572;38.086;2023-06-10T01:47:01;6.50;;;1.67;;
67363;SDS011;54250;45.572;38.086;2023-06-10T01:49:27;13.93;;;1.73;;
67363;SDS011;54250;45.572;38.086;2023-06-10T01:51:54;9.88;;;1.90;;
67363;SDS011;54250;45.572;38.086;2023-06-10T01:54:20;9.32;;;1.73;;
67363;SDS011;54250;45.572;38.086;2023-06-10T01:56:46;6.97;;;1.90;;
67363;SDS011;54250;45.572;38.086;2023-06-10T01:59:12;7.28;;;1.27;;
67363;SDS011;54250;45.572;38.086;2023-06-10T02:01:38;12.18;;;1.67;;
67363;SDS011;54250;45.572;38.086;2023-06-10T02:04:04;15.18;;;2.60;;
67363;SDS011;54250;45.572;38.086;2023-06-10T02:06:31;10.55;;;1.73;;
67363;SDS011;54250;45.572;38.086;2023-06-10T02:08:57;19.30;;;2.92;;
67363;SDS011;54250;45.572;38.086;2023-06-10T02:11:23;19.10;;;2.05;;
67363;SDS011;54250;45.572;38.086;2023-06-10T02:13:50;28.70;;;2.45;;
67363;SDS011;54250;45.572;38.086;2023-06-10T02:16:17;12.40;;;1.77;;
67363;SDS011;54250;45.572;38.086;2023-06-10T02:18:44;11.40;;;2.28;;
67363;SDS011;54250;45.572;38.086;2023-06-10T02:21:10;15.68;;;2.13;;
67363;SDS011;54250;45.572;38.086;2023-06-10T02:23:36;11.40;;;2.25;;
67363;SDS011;54250;45.572;38.086;2023-06-10T02:26:03;10.77;;;2.20;;
67363;SDS011;54250;45.572;38.086;2023-06-10T02:28:29;9.90;;;1.40;;
67363;SDS011;54250;45.572;38.086;2023-06-10T02:30:57;11.23;;;2.03;;
67363;SDS011;54250;45.572;38.086;2023-06-10T02:33:25;14.93;;;1.98;;
67363;SDS011;54250;45.572;38.086;2023-06-10T02:35:52;17.48;;;2.65;;
67363;SDS011;54250;45.572;38.086;2023-06-10T02:38:19;15.35;;;1.90;;
67363;SDS011;54250;45.572;38.086;2023-06-10T02:40:46;15.27;;;2.80;;
67363;SDS011;54250;45.572;38.086;2023-06-10T02:43:12;7.07;;;2.05;;
67363;SDS011;54250;45.572;38.086;2023-06-10T02:45:40;9.25;;;1.67;;
67363;SDS011;54250;45.572;38.086;2023-06-10T02:48:07;10.98;;;1.75;;
67363;SDS011;54250;45.572;38.086;2023-06-10T02:50:33;12.25;;;2.08;;
67363;SDS011;54250;45.572;38.086;2023-06-10T02:53:11;11.43;;;2.42;;
67363;SDS011;54250;45.572;38.086;2023-06-10T02:55:42;17.67;;;2.30;;
67363;SDS011;54250;45.572;38.086;2023-06-10T02:58:11;14.38;;;2.08;;
67363;SDS011;54250;45.572;38.086;2023-06-10T03:00:38;16.00;;;2.70;;
67363;SDS011;54250;45.572;38.086;2023-06-10T03:03:06;17.85;;;1.80;;
67363;SDS011;54250;45.572;38.086;2023-06-10T03:05:42;9.07;;;1.95;;
67363;SDS011;54250;45.572;38.086;2023-06-10T03:08:09;5.63;;;1.40;;
67363;SDS011;54250;45.572;38.086;2023-06-10T03:10:38;20.40;;;2.15;;
67363;SDS011;54250;45.572;38.086;2023-06-10T03:13:04;12.20;;;1.88;;
67363;SDS011;54250;45.572;38.086;2023-06-10T03:15:31;30.00;;;2.55;;
67363;SDS011;54250;45.572;38.086;2023-06-10T03:18:00;14.73;;;1.95;;
67363;SDS011;54250;45.572;38.086;2023-06-10T03:20:28;3.50;;;1.23;;
67363;SDS011;54250;45.572;38.086;2023-06-10T03:22:55;10.10;;;2.22;;
67363;SDS011;54250;45.572;38.086;2023-06-10T03:25:21;14.32;;;2.75;;
67363;SDS011;54250;45.572;38.086;2023-06-10T03:27:51;14.20;;;2.42;;
67363;SDS011;54250;45.572;38.086;2023-06-10T03:30:18;12.48;;;2.55;;
67363;SDS011;54250;45.572;38.086;2023-06-10T03:32:46;12.02;;;2.10;;
67363;SDS011;54250;45.572;38.086;2023-06-10T03:35:16;16.08;;;1.85;;
67363;SDS011;54250;45.572;38.086;2023-06-10T03:37:43;21.30;;;2.00;;
67363;SDS011;54250;45.572;38.086;2023-06-10T03:40:09;8.98;;;2.17;;
67363;SDS011;54250;45.572;38.086;2023-06-10T03:42:37;6.32;;;1.83;;
67363;SDS011;54250;45.572;38.086;2023-06-10T03:45:04;17.95;;;3.38;;
67363;SDS011;54250;45.572;38.086;2023-06-10T03:47:34;20.88;;;3.58;;
67363;SDS011;54250;45.572;38.086;2023-06-10T03:50:02;17.70;;;1.60;;
67363;SDS011;54250;45.572;38.086;2023-06-10T03:52:30;11.45;;;2.55;;
67363;SDS011;54250;45.572;38.086;2023-06-10T03:54:57;13.52;;;2.00;;
67363;SDS011;54250;45.572;38.086;2023-06-10T03:57:23;15.73;;;1.90;;
67363;SDS011;54250;45.572;38.086;2023-06-10T03:59:50;15.40;;;2.78;;
67363;SDS011;54250;45.572;38.086;2023-06-10T04:02:16;11.57;;;2.78;;
67363;SDS011;54250;45.572;38.086;2023-06-10T04:04:43;8.25;;;1.50;;
67363;SDS011;54250;45.572;38.086;2023-06-10T04:07:09;8.25;;;2.28;;
67363;SDS011;54250;45.572;38.086;2023-06-10T04:09:35;14.63;;;2.10;;
67363;SDS011;54250;45.572;38.086;2023-06-10T04:12:03;17.35;;;2.78;;
67363;SDS011;54250;45.572;38.086;2023-06-10T04:14:32;10.07;;;2.08;;
67363;SDS011;54250;45.572;38.086;2023-06-10T04:16:58;15.23;;;2.83;;
67363;SDS011;54250;45.572;38.086;2023-06-10T04:19:24;14.65;;;2.60;;
67363;SDS011;54250;45.572;38.086;2023-06-10T04:21:51;16.42;;;2.40;;
67363;SDS011;54250;45.572;38.086;2023-06-10T04:24:17;12.13;;;2.45;;
67363;SDS011;54250;45.572;38.086;2023-06-10T04:26:44;14.13;;;2.05;;
67363;SDS011;54250;45.572;38.086;2023-06-10T04:29:11;6.88;;;1.95;;
67363;SDS011;54250;45.572;38.086;2023-06-10T04:31:37;13.90;;;2.30;;
67363;SDS011;54250;45.572;38.086;2023-06-10T04:34:03;22.15;;;2.42;;
67363;SDS011;54250;45.572;38.086;2023-06-10T04:36:30;2.58;;;1.10;;
67363;SDS011;54250;45.572;38.086;2023-06-10T04:38:56;15.82;;;2.20;;
67363;SDS011;54250;45.572;38.086;2023-06-10T04:41:22;18.58;;;2.05;;
67363;SDS011;54250;45.572;38.086;2023-06-10T04:43:49;7.70;;;2.10;;
67363;SDS011;54250;45.572;38.086;2023-06-10T04:46:15;24.38;;;2.38;;
67363;SDS011;54250;45.572;38.086;2023-06-10T04:48:43;20.45;;;1.77;;
67363;SDS011;54250;45.572;38.086;2023-06-10T04:51:10;20.73;;;2.90;;
67363;SDS011;54250;45.572;38.086;2023-06-10T04:53:36;17.60;;;2.22;;
67363;SDS011;54250;45.572;38.086;2023-06-10T04:56:03;18.48;;;2.58;;
67363;SDS011;54250;45.572;38.086;2023-06-10T04:58:29;22.27;;;2.40;;
67363;SDS011;54250;45.572;38.086;2023-06-10T05:00:55;11.38;;;2.60;;
67363;SDS011;54250;45.572;38.086;2023-06-10T05:03:21;10.38;;;2.45;;
67363;SDS011;54250;45.572;38.086;2023-06-10T05:05:47;12.60;;;1.45;;
67363;SDS011;54250;45.572;38.086;2023-06-10T05:08:13;18.17;;;2.35;;
67363;SDS011;54250;45.572;38.086;2023-06-10T05:10:39;19.30;;;2.03;;
67363;SDS011;54250;45.572;38.086;2023-06-10T05:13:05;18.98;;;2.20;;
67363;SDS011;54250;45.572;38.086;2023-06-10T05:15:32;12.25;;;1.58;;
67363;SDS011;54250;45.572;38.086;2023-06-10T05:17:58;13.43;;;2.30;;
67363;SDS011;54250;45.572;38.086;2023-06-10T05:20:24;22.00;;;2.90;;
67363;SDS011;54250;45.572;38.086;2023-06-10T05:22:51;11.15;;;1.92;;
67363;SDS011;54250;45.572;38.086;2023-06-10T05:25:17;19.13;;;3.15;;
67363;SDS011;54250;45.572;38.086;2023-06-10T05:27:43;10.15;;;2.13;;
67363;SDS011;54250;45.572;38.086;2023-06-10T05:30:10;8.73;;;2.08;;
67363;SDS011;54250;45.572;38.086;2023-06-10T05:32:36;9.30;;;1.48;;
67363;SDS011;54250;45.572;38.086;2023-06-10T05:35:02;8.18;;;2.08;;
67363;SDS011;54250;45.572;38.086;2023-06-10T05:37:30;21.67;;;3.42;;
67363;SDS011;54250;45.572;38.086;2023-06-10T05:39:56;19.55;;;2.20;;
67363;SDS011;54250;45.572;38.086;2023-06-10T05:42:22;9.55;;;3.00;;
67363;SDS011;54250;45.572;38.086;2023-06-10T05:44:48;12.02;;;2.30;;
67363;SDS011;54250;45.572;38.086;2023-06-10T05:47:14;17.77;;;2.67;;
67363;SDS011;54250;45.572;38.086;2023-06-10T05:49:40;13.68;;;2.75;;
67363;SDS011;54250;45.572;38.086;2023-06-10T05:52:06;10.43;;;2.17;;
67363;SDS011;54250;45.572;38.086;2023-06-10T05:54:32;15.23;;;2.53;;
67363;SDS011;54250;45.572;38.086;2023-06-10T05:56:58;23.15;;;2.50;;
67363;SDS011;54250;45.572;38.086;2023-06-10T05:59:24;6.78;;;2.10;;
67363;SDS011;54250;45.572;38.086;2023-06-10T06:01:50;16.52;;;3.00;;
67363;SDS011;54250;45.572;38.086;2023-06-10T06:04:16;16.08;;;3.08;;
67363;SDS011;54250;45.572;38.086;2023-06-10T06:06:42;13.00;;;2.38;;
67363;SDS011;54250;45.572;38.086;2023-06-10T06:09:08;5.88;;;2.15;;
67363;SDS011;54250;45.572;38.086;2023-06-10T06:11:35;15.93;;;2.70;;
67363;SDS011;54250;45.572;38.086;2023-06-10T06:14:01;11.05;;;2.00;;
67363;SDS011;54250;45.572;38.086;2023-06-10T06:16:27;12.77;;;2.15;;
67363;SDS011;54250;45.572;38.086;2023-06-10T06:18:53;14.18;;;2.42;;
67363;SDS011;54250;45.572;38.086;2023-06-10T06:21:19;22.63;;;2.92;;
67363;SDS011;54250;45.572;38.086;2023-06-10T06:23:45;15.20;;;2.50;;
67363;SDS011;54250;45.572;38.086;2023-06-10T06:26:11;26.27;;;2.90;;
67363;SDS011;54250;45.572;38.086;2023-06-10T06:28:37;25.90;;;3.05;;
67363;SDS011;54250;45.572;38.086;2023-06-10T06:31:03;20.55;;;2.67;;
67363;SDS011;54250;45.572;38.086;2023-06-10T06:33:29;15.90;;;2.17;;
67363;SDS011;54250;45.572;38.086;2023-06-10T06:35:55;12.88;;;2.13;;
67363;SDS011;54250;45.572;38.086;2023-06-10T06:38:22;19.80;;;2.90;;
67363;SDS011;54250;45.572;38.086;2023-06-10T06:40:48;14.15;;;2.50;;
67363;SDS011;54250;45.572;38.086;2023-06-10T06:43:14;11.23;;;2.58;;
67363;SDS011;54250;45.572;38.086;2023-06-10T06:46:02;13.95;;;2.25;;
67363;SDS011;54250;45.572;38.086;2023-06-10T06:48:28;12.77;;;2.83;;
67363;SDS011;54250;45.572;38.086;2023-06-10T06:50:54;9.07;;;2.10;;
67363;SDS011;54250;45.572;38.086;2023-06-10T06:53:21;12.80;;;2.63;;
67363;SDS011;54250;45.572;38.086;2023-06-10T06:55:47;13.65;;;2.33;;
67363;SDS011;54250;45.572;38.086;2023-06-10T06:58:13;15.68;;;2.53;;
67363;SDS011;54250;45.572;38.086;2023-06-10T07:00:40;9.52;;;3.35;;
67363;SDS011;54250;45.572;38.086;2023-06-10T07:03:05;11.35;;;2.17;;
67363;SDS011;54250;45.572;38.086;2023-06-10T07:05:32;12.98;;;2.80;;
67363;SDS011;54250;45.572;38.086;2023-06-10T07:20:10;12.07;;;2.63;;
67363;SDS011;54250;45.572;38.086;2023-06-10T07:22:36;24.58;;;3.35;;
67363;SDS011;54250;45.572;38.086;2023-06-10T07:25:04;12.35;;;2.63;;
67363;SDS011;54250;45.572;38.086;2023-06-10T07:27:31;15.63;;;2.80;;
67363;SDS011;54250;45.572;38.086;2023-06-10T07:29:57;7.82;;;2.45;;
67363;SDS011;54250;45.572;38.086;2023-06-10T07:32:23;14.32;;;2.22;;
67363;SDS011;54250;45.572;38.086;2023-06-10T07:34:50;17.75;;;3.00;;
67363;SDS011;54250;45.572;38.086;2023-06-10T07:37:17;12.73;;;2.97;;
67363;SDS011;54250;45.572;38.086;2023-06-10T07:39:45;16.88;;;3.60;;
67363;SDS011;54250;45.572;38.086;2023-06-10T07:42:11;13.30;;;2.40;;
67363;SDS011;54250;45.572;38.086;2023-06-10T07:44:37;16.52;;;3.28;;
67363;SDS011;54250;45.572;38.086;2023-06-10T07:47:03;7.18;;;2.33;;
67363;SDS011;54250;45.572;38.086;2023-06-10T07:49:29;8.55;;;2.40;;
67363;SDS011;54250;45.572;38.086;2023-06-10T07:51:55;21.55;;;2.75;;
67363;SDS011;54250;45.572;38.086;2023-06-10T07:54:22;9.00;;;2.70;;
67363;SDS011;54250;45.572;38.086;2023-06-10T07:56:48;19.13;;;3.15;;
67363;SDS011;54250;45.572;38.086;2023-06-10T07:59:15;8.65;;;2.58;;
67363;SDS011;54250;45.572;38.086;2023-06-10T08:04:08;15.52;;;3.03;;
67363;SDS011;54250;45.572;38.086;2023-06-10T08:06:34;14.93;;;2.80;;
67363;SDS011;54250;45.572;38.086;2023-06-10T08:09:02;10.70;;;2.83;;
67363;SDS011;54250;45.572;38.086;2023-06-10T08:11:28;11.48;;;2.85;;
67363;SDS011;54250;45.572;38.086;2023-06-10T08:13:55;20.02;;;3.15;;
67363;SDS011;54250;45.572;38.086;2023-06-10T08:16:21;12.77;;;4.50;;
67363;SDS011;54250;45.572;38.086;2023-06-10T08:18:47;15.10;;;2.88;;
67363;SDS011;54250;45.572;38.086;2023-06-10T08:21:15;14.45;;;2.75;;
67363;SDS011;54250;45.572;38.086;2023-06-10T08:23:41;18.35;;;3.22;;
67363;SDS011;54250;45.572;38.086;2023-06-10T08:26:07;16.67;;;2.88;;
67363;SDS011;54250;45.572;38.086;2023-06-10T08:28:33;15.05;;;2.60;;
67363;SDS011;54250;45.572;38.086;2023-06-10T08:30:59;9.35;;;2.45;;
67363;SDS011;54250;45.572;38.086;2023-06-10T08:33:25;14.55;;;2.50;;
67363;SDS011;54250;45.572;38.086;2023-06-10T08:35:51;14.55;;;2.75;;
67363;SDS011;54250;45.572;38.086;2023-06-10T08:38:17;10.18;;;2.35;;
67363;SDS011;54250;45.572;38.086;2023-06-10T08:40:43;9.35;;;2.55;;
67363;SDS011;54250;45.572;38.086;2023-06-10T08:45:57;12.77;;;3.00;;
67363;SDS011;54250;45.572;38.086;2023-06-10T08:48:29;19.80;;;3.42;;
67363;SDS011;54250;45.572;38.086;2023-06-10T08:50:58;8.20;;;2.88;;
67363;SDS011;54250;45.572;38.086;2023-06-10T08:53:26;11.55;;;2.45;;
67363;SDS011;54250;45.572;38.086;2023-06-10T11:52:11;11.75;;;2.05;;
67363;SDS011;54250;45.572;38.086;2023-06-10T11:54:38;11.85;;;2.40;;
67363;SDS011;54250;45.572;38.086;2023-06-10T11:57:04;10.95;;;2.20;;
67363;SDS011;54250;45.572;38.086;2023-06-10T11:59:31;12.60;;;2.70;;
67363;SDS011;54250;45.572;38.086;2023-06-10T12:01:57;11.63;;;2.25;;
67363;SDS011;54250;45.572;38.086;2023-06-10T12:04:24;12.77;;;3.22;;
67363;SDS011;54250;45.572;38.086;2023-06-10T12:06:52;12.60;;;2.58;;
67363;SDS011;54250;45.572;38.086;2023-06-10T12:11:45;10.63;;;2.30;;
67363;SDS011;54250;45.572;38.086;2023-06-10T12:14:50;12.82;;;2.60;;
67363;SDS011;54250;45.572;38.086;2023-06-10T12:19:58;12.48;;;2.90;;
67363;SDS011;54250;45.572;38.086;2023-06-10T12:22:26;19.77;;;2.63;;
67363;SDS011;54250;45.572;38.086;2023-06-10T12:24:58;13.85;;;2.55;;
67363;SDS011;54250;45.572;38.086;2023-06-10T12:27:26;15.50;;;2.72;;
67363;SDS011;54250;45.572;38.086;2023-06-10T12:29:55;25.38;;;2.95;;
67363;SDS011;54250;45.572;38.086;2023-06-10T12:32:39;13.02;;;2.53;;
67363;SDS011;54250;45.572;38.086;2023-06-10T12:35:09;13.73;;;2.53;;
67363;SDS011;54250;45.572;38.086;2023-06-10T12:37:38;5.75;;;2.50;;
67363;SDS011;54250;45.572;38.086;2023-06-10T12:40:05;15.50;;;2.40;;
67363;SDS011;54250;45.572;38.086;2023-06-10T12:42:33;5.82;;;2.58;;
67363;SDS011;54250;45.572;38.086;2023-06-10T12:45:03;10.93;;;2.30;;
67363;SDS011;54250;45.572;38.086;2023-06-10T12:47:30;10.32;;;2.33;;
67363;SDS011;54250;45.572;38.086;2023-06-10T12:49:58;15.10;;;2.70;;
67363;SDS011;54250;45.572;38.086;2023-06-10T12:52:25;5.57;;;1.90;;
67363;SDS011;54250;45.572;38.086;2023-06-10T12:54:51;9.60;;;2.53;;
67363;SDS011;54250;45.572;38.086;2023-06-10T12:57:17;4.70;;;2.25;;
67363;SDS011;54250;45.572;38.086;2023-06-10T12:59:43;7.50;;;2.15;;
67363;SDS011;54250;45.572;38.086;2023-06-10T13:02:15;10.48;;;2.70;;
67363;SDS011;54250;45.572;38.086;2023-06-10T13:04:45;13.18;;;2.38;;
67363;SDS011;54250;45.572;38.086;2023-06-10T13:07:12;12.13;;;2.63;;
67363;SDS011;54250;45.572;38.086;2023-06-10T13:09:38;20.63;;;3.28;;
67363;SDS011;54250;45.572;38.086;2023-06-10T13:12:05;16.45;;;2.95;;
67363;SDS011;54250;45.572;38.086;2023-06-10T13:14:31;25.38;;;3.40;;
67363;SDS011;54250;45.572;38.086;2023-06-10T13:16:58;15.32;;;2.38;;
67363;SDS011;54250;45.572;38.086;2023-06-10T13:19:24;17.08;;;2.70;;
67363;SDS011;54250;45.572;38.086;2023-06-10T13:21:51;15.57;;;3.22;;
67363;SDS011;54250;45.572;38.086;2023-06-10T13:24:17;20.80;;;2.75;;
67363;SDS011;54250;45.572;38.086;2023-06-10T13:26:43;20.27;;;3.08;;
67363;SDS011;54250;45.572;38.086;2023-06-10T13:29:09;16.90;;;2.55;;
67363;SDS011;54250;45.572;38.086;2023-06-10T13:31:39;8.10;;;2.50;;
67363;SDS011;54250;45.572;38.086;2023-06-10T13:34:06;6.00;;;2.55;;
67363;SDS011;54250;45.572;38.086;2023-06-10T13:36:32;12.40;;;2.95;;
67363;SDS011;54250;45.572;38.086;2023-06-10T13:38:58;20.50;;;3.00;;
67363;SDS011;54250;45.572;38.086;2023-06-10T13:41:25;16.15;;;2.95;;
67363;SDS011;54250;45.572;38.086;2023-06-10T13:43:54;12.68;;;2.38;;
67363;SDS011;54250;45.572;38.086;2023-06-10T13:46:20;13.50;;;3.10;;
67363;SDS011;54250;45.572;38.086;2023-06-10T13:48:47;12.63;;;2.92;;
67363;SDS011;54250;45.572;38.086;2023-06-10T13:51:13;13.48;;;2.28;;
67363;SDS011;54250;45.572;38.086;2023-06-10T13:53:39;12.98;;;2.70;;
67363;SDS011;54250;45.572;38.086;2023-06-10T13:56:06;10.05;;;2.80;;
67363;SDS011;54250;45.572;38.086;2023-06-10T13:58:32;15.13;;;3.17;;
67363;SDS011;54250;45.572;38.086;2023-06-10T14:01:04;19.00;;;3.45;;
67363;SDS011;54250;45.572;38.086;2023-06-10T14:03:30;12.60;;;3.05;;
67363;SDS011;54250;45.572;38.086;2023-06-10T14:05:56;17.40;;;4.28;;
67363;SDS011;54250;45.572;38.086;2023-06-10T14:08:23;11.45;;;2.95;;
67363;SDS011;54250;45.572;38.086;2023-06-10T14:10:49;15.93;;;3.35;;
67363;SDS011;54250;45.572;38.086;2023-06-10T14:13:16;15.25;;;3.92;;
67363;SDS011;54250;45.572;38.086;2023-06-10T14:15:43;10.93;;;3.55;;
67363;SDS011;54250;45.572;38.086;2023-06-10T14:18:09;14.32;;;4.18;;
67363;SDS011;54250;45.572;38.086;2023-06-10T14:20:36;8.98;;;3.30;;
67363;SDS011;54250;45.572;38.086;2023-06-10T14:23:02;10.18;;;3.08;;
67363;SDS011;54250;45.572;38.086;2023-06-10T14:25:29;12.95;;;3.30;;
67363;SDS011;54250;45.572;38.086;2023-06-10T14:27:55;13.02;;;3.45;;
67363;SDS011;54250;45.572;38.086;2023-06-10T14:30:22;22.50;;;4.15;;
67363;SDS011;54250;45.572;38.086;2023-06-10T14:32:48;19.27;;;4.25;;
67363;SDS011;54250;45.572;38.086;2023-06-10T14:35:15;8.63;;;3.58;;
67363;SDS011;54250;45.572;38.086;2023-06-10T14:37:41;10.63;;;4.63;;
67363;SDS011;54250;45.572;38.086;2023-06-10T14:40:07;15.27;;;6.30;;
67363;SDS011;54250;45.572;38.086;2023-06-10T14:42:33;15.48;;;6.10;;
67363;SDS011;54250;45.572;38.086;2023-06-10T14:44:59;16.88;;;6.70;;
67363;SDS011;54250;45.572;38.086;2023-06-10T14:47:26;14.88;;;3.92;;
67363;SDS011;54250;45.572;38.086;2023-06-10T14:49:52;17.92;;;3.67;;
67363;SDS011;54250;45.572;38.086;2023-06-10T14:52:18;13.95;;;3.53;;
67363;SDS011;54250;45.572;38.086;2023-06-10T14:54:44;16.25;;;3.45;;
67363;SDS011;54250;45.572;38.086;2023-06-10T14:57:10;17.17;;;3.25;;
67363;SDS011;54250;45.572;38.086;2023-06-10T14:59:36;13.30;;;3.33;;
67363;SDS011;54250;45.572;38.086;2023-06-10T15:02:02;12.60;;;3.10;;
67363;SDS011;54250;45.572;38.086;2023-06-10T15:04:28;34.72;;;4.70;;
67363;SDS011;54250;45.572;38.086;2023-06-10T15:06:54;21.95;;;4.72;;
67363;SDS011;54250;45.572;38.086;2023-06-10T15:09:20;14.57;;;3.30;;
67363;SDS011;54250;45.572;38.086;2023-06-10T15:11:46;12.98;;;2.60;;
67363;SDS011;54250;45.572;38.086;2023-06-10T15:14:12;26.40;;;3.05;;
67363;SDS011;54250;45.572;38.086;2023-06-10T15:16:38;15.90;;;2.65;;
67363;SDS011;54250;45.572;38.086;2023-06-10T15:19:05;6.72;;;2.28;;
67363;SDS011;54250;45.572;38.086;2023-06-10T15:21:33;7.22;;;2.28;;
67363;SDS011;54250;45.572;38.086;2023-06-10T15:24:00;16.65;;;3.28;;
67363;SDS011;54250;45.572;38.086;2023-06-10T15:26:26;11.93;;;3.22;;
67363;SDS011;54250;45.572;38.086;2023-06-10T15:28:52;17.60;;;3.28;;
67363;SDS011;54250;45.572;38.086;2023-06-10T15:31:18;13.85;;;2.78;;
67363;SDS011;54250;45.572;38.086;2023-06-10T15:33:44;5.88;;;2.63;;
67363;SDS011;54250;45.572;38.086;2023-06-10T15:36:10;20.08;;;3.03;;
67363;SDS011;54250;45.572;38.086;2023-06-10T15:38:38;23.27;;;3.33;;
67363;SDS011;54250;45.572;38.086;2023-06-10T15:41:05;7.45;;;4.30;;
67363;SDS011;54250;45.572;38.086;2023-06-10T15:43:31;10.50;;;4.88;;
67363;SDS011;54250;45.572;38.086;2023-06-10T15:45:57;14.77;;;3.28;;
67363;SDS011;54250;45.572;38.086;2023-06-10T15:48:23;25.58;;;4.40;;
67363;SDS011;54250;45.572;38.086;2023-06-10T15:50:49;17.92;;;4.70;;
67363;SDS011;54250;45.572;38.086;2023-06-10T15:53:15;14.63;;;4.13;;
67363;SDS011;54250;45.572;38.086;2023-06-10T15:55:41;13.70;;;4.25;;
67363;SDS011;54250;45.572;38.086;2023-06-10T15:58:08;7.85;;;3.72;;
67363;SDS011;54250;45.572;38.086;2023-06-10T16:00:34;11.73;;;4.15;;
67363;SDS011;54250;45.572;38.086;2023-06-10T16:03:00;13.07;;;4.93;;
67363;SDS011;54250;45.572;38.086;2023-06-10T16:05:26;16.00;;;5.15;;
67363;SDS011;54250;45.572;38.086;2023-06-10T16:07:52;23.23;;;5.57;;
67363;SDS011;54250;45.572;38.086;2023-06-10T16:10:18;13.68;;;7.90;;
67363;SDS011;54250;45.572;38.086;2023-06-10T16:12:44;24.10;;;7.63;;
67363;SDS011;54250;45.572;38.086;2023-06-10T16:15:10;23.20;;;8.40;;
67363;SDS011;54250;45.572;38.086;2023-06-10T16:17:36;17.02;;;5.80;;
67363;SDS011;54250;45.572;38.086;2023-06-10T16:20:03;15.95;;;5.95;;
67363;SDS011;54250;45.572;38.086;2023-06-10T16:22:30;16.63;;;5.18;;
67363;SDS011;54250;45.572;38.086;2023-06-10T16:24:57;8.60;;;4.13;;
67363;SDS011;54250;45.572;38.086;2023-06-10T16:27:23;11.30;;;4.35;;
67363;SDS011;54250;45.572;38.086;2023-06-10T16:29:51;21.17;;;4.40;;
67363;SDS011;54250;45.572;38.086;2023-06-10T16:32:18;11.60;;;3.65;;
67363;SDS011;54250;45.572;38.086;2023-06-10T16:34:44;14.40;;;4.00;;
67363;SDS011;54250;45.572;38.086;2023-06-10T16:37:10;15.02;;;5.30;;
67363;SDS011;54250;45.572;38.086;2023-06-10T16:39:37;15.90;;;4.97;;
67363;SDS011;54250;45.572;38.086;2023-06-10T16:42:03;12.10;;;4.30;;
67363;SDS011;54250;45.572;38.086;2023-06-10T16:44:30;14.85;;;4.28;;
67363;SDS011;54250;45.572;38.086;2023-06-10T16:46:56;14.65;;;5.53;;
67363;SDS011;54250;45.572;38.086;2023-06-10T16:49:22;12.73;;;5.35;;
67363;SDS011;54250;45.572;38.086;2023-06-10T16:51:48;13.20;;;4.93;;
67363;SDS011;54250;45.572;38.086;2023-06-10T16:54:14;16.13;;;5.28;;
67363;SDS011;54250;45.572;38.086;2023-06-10T16:56:40;14.85;;;4.95;;
67363;SDS011;54250;45.572;38.086;2023-06-10T16:59:06;14.55;;;5.50;;
67363;SDS011;54250;45.572;38.086;2023-06-10T17:01:34;18.73;;;6.10;;
67363;SDS011;54250;45.572;38.086;2023-06-10T17:04:00;12.68;;;4.72;;
67363;SDS011;54250;45.572;38.086;2023-06-10T17:06:26;19.55;;;5.90;;
67363;SDS011;54250;45.572;38.086;2023-06-10T17:08:52;7.05;;;3.85;;
67363;SDS011;54250;45.572;38.086;2023-06-10T17:11:18;8.68;;;3.95;;
67363;SDS011;54250;45.572;38.086;2023-06-10T17:13:46;12.88;;;5.82;;
67363;SDS011;54250;45.572;38.086;2023-06-10T17:16:13;16.52;;;6.38;;
67363;SDS011;54250;45.572;38.086;2023-06-10T17:18:39;13.85;;;5.75;;
67363;SDS011;54250;45.572;38.086;2023-06-10T17:21:05;13.52;;;5.95;;
67363;SDS011;54250;45.572;38.086;2023-06-10T17:23:31;10.02;;;3.70;;
67363;SDS011;54250;45.572;38.086;2023-06-10T17:25:57;10.73;;;4.47;;
67363;SDS011;54250;45.572;38.086;2023-06-10T17:28:23;11.88;;;4.05;;
67363;SDS011;54250;45.572;38.086;2023-06-10T17:30:50;12.52;;;3.78;;
67363;SDS011;54250;45.572;38.086;2023-06-10T17:33:16;10.75;;;3.42;;
67363;SDS011;54250;45.572;38.086;2023-06-10T17:35:42;15.80;;;3.05;;
67363;SDS011;54250;45.572;38.086;2023-06-10T17:38:08;5.00;;;2.40;;
67363;SDS011;54250;45.572;38.086;2023-06-10T17:40:34;12.68;;;3.20;;
67363;SDS011;54250;45.572;38.086;2023-06-10T17:43:00;8.98;;;3.17;;
67363;SDS011;54250;45.572;38.086;2023-06-10T17:45:26;7.82;;;3.42;;
67363;SDS011;54250;45.572;38.086;2023-06-10T17:47:52;10.13;;;3.30;;